createdAt,value
2022-11-13T00:02:34.729Z,45.40
2022-11-13T00:05:58.254Z,48.00
2022-11-13T00:09:13.941Z,45.80
2022-11-13T00:12:29.772Z,38.60
2022-11-13T00:15:44.869Z,46.00
2022-11-13T00:19:00.969Z,50.60
2022-11-13T00:22:16.227Z,47.40
2022-11-13T00:25:32.141Z,42.80
2022-11-13T00:28:52.557Z,48.60
2022-11-13T00:32:07.964Z,46.80
2022-11-13T00:35:23.992Z,39.00
2022-11-13T00:38:39.300Z,55.50
2022-11-13T00:41:54.887Z,48.00
2022-11-13T00:45:11.213Z,45.60
2022-11-13T00:48:27.219Z,45.25
2022-11-13T00:51:42.901Z,50.25
2022-11-13T00:54:59.148Z,53.00
2022-11-13T00:58:15.038Z,41.25
2022-11-13T01:01:31.364Z,48.20
2022-11-13T01:04:47.143Z,49.00
2022-11-13T01:08:03.805Z,48.80
2022-11-13T01:11:21.176Z,40.60
2022-11-13T01:14:36.949Z,41.80
2022-11-13T01:17:55.140Z,35.40
2022-11-13T01:21:19.020Z,36.00
2022-11-13T01:24:34.917Z,39.40
2022-11-13T01:27:51.133Z,38.20
2022-11-13T01:31:08.004Z,43.60
2022-11-13T01:34:24.099Z,51.20
2022-11-13T01:37:40.254Z,48.20
2022-11-13T01:40:56.230Z,43.00
2022-11-13T01:44:15.968Z,46.00
2022-11-13T01:47:31.960Z,49.25
2022-11-13T01:50:47.064Z,42.50
2022-11-13T01:54:05.203Z,36.40
2022-11-13T01:57:21.253Z,40.60
2022-11-13T02:00:37.256Z,38.00
2022-11-13T02:03:53.128Z,39.80
2022-11-13T02:07:13.274Z,42.60
2022-11-13T02:10:28.954Z,34.40
2022-11-13T02:13:45.466Z,33.80
2022-11-13T02:17:03.323Z,30.40
2022-11-13T02:20:27.392Z,37.20
2022-11-13T02:24:19.757Z,37.60
2022-11-13T02:27:46.081Z,38.80
2022-11-13T02:31:12.198Z,39.20
2022-11-13T02:34:27.997Z,37.20
2022-11-13T02:37:44.144Z,39.20
2022-11-13T02:41:00.107Z,39.00
2022-11-13T02:44:15.137Z,39.40
2022-11-13T02:47:31.207Z,42.00
2022-11-13T02:50:47.093Z,38.00
2022-11-13T02:54:03.388Z,46.00
2022-11-13T02:57:19.081Z,40.75
2022-11-13T03:00:34.297Z,35.00
2022-11-13T03:03:58.267Z,40.00
2022-11-13T03:07:15.310Z,44.60
2022-11-13T03:10:31.209Z,43.75
2022-11-13T03:13:47.209Z,29.40
2022-11-13T03:17:02.925Z,36.75
2022-11-13T03:20:18.357Z,29.60
2022-11-13T03:23:34.353Z,29.25
2022-11-13T03:26:50.221Z,29.20
2022-11-13T03:30:06.912Z,36.80
2022-11-13T03:33:23.501Z,22.20
2022-11-13T03:36:39.274Z,37.80
2022-11-13T03:39:55.059Z,36.00
2022-11-13T03:43:11.108Z,32.60
2022-11-13T03:46:26.072Z,36.00
2022-11-13T03:49:42.261Z,28.60
2022-11-13T03:52:58.614Z,35.60
2022-11-13T03:56:13.998Z,33.20
2022-11-13T03:59:30.367Z,32.40
2022-11-13T04:02:46.208Z,25.60
2022-11-13T04:06:01.235Z,37.00
2022-11-13T04:09:17.456Z,20.60
2022-11-13T04:12:33.395Z,27.40
2022-11-13T04:15:49.262Z,31.80
2022-11-13T04:19:05.130Z,31.00
2022-11-13T04:22:21.255Z,30.00
2022-11-13T04:25:37.209Z,26.00
2022-11-13T04:28:53.169Z,31.80
2022-11-13T04:32:09.307Z,32.80
2022-11-13T04:35:25.185Z,31.00
2022-11-13T04:38:41.266Z,24.00
2022-11-13T04:42:16.132Z,25.20
2022-11-13T04:45:31.190Z,31.80
2022-11-13T04:48:47.250Z,25.80
2022-11-13T04:52:03.668Z,29.80
2022-11-13T04:55:19.425Z,26.40
2022-11-13T04:58:35.393Z,28.80
2022-11-13T05:01:51.313Z,29.80
2022-11-13T05:05:07.444Z,30.60
2022-11-13T05:08:23.293Z,27.40
2022-11-13T05:11:39.195Z,27.80
2022-11-13T05:14:55.150Z,30.60
2022-11-13T05:18:11.397Z,30.80
2022-11-13T05:21:27.435Z,31.00
2022-11-13T05:24:43.275Z,31.80
2022-11-13T05:27:59.453Z,33.20
2022-11-13T05:31:15.989Z,32.60
2022-11-13T05:34:31.029Z,33.80
2022-11-13T05:37:47.606Z,30.20
2022-11-13T05:41:18.230Z,34.40
2022-11-13T05:44:34.565Z,30.20
2022-11-13T05:47:50.723Z,25.60
2022-11-13T05:51:08.621Z,34.20
2022-11-13T05:54:24.180Z,33.60
2022-11-13T05:57:40.466Z,26.60
2022-11-13T06:01:09.997Z,28.50
2022-11-13T06:04:25.243Z,30.75
2022-11-13T06:07:40.934Z,39.50
2022-11-13T06:11:03.839Z,26.20
2022-11-13T06:14:19.593Z,30.40
2022-11-13T06:17:35.297Z,32.40
2022-11-13T06:20:51.125Z,31.75
2022-11-13T06:24:06.737Z,34.40
2022-11-13T06:27:22.655Z,41.25
2022-11-13T06:30:38.047Z,41.25
2022-11-13T06:33:54.395Z,41.75
2022-11-13T06:37:10.408Z,44.00
2022-11-13T06:40:26.352Z,46.00
2022-11-13T06:43:42.435Z,31.50
2022-11-13T06:46:58.586Z,33.75
2022-11-13T06:50:14.557Z,30.50
2022-11-13T06:53:30.101Z,35.25
2022-11-13T06:56:45.634Z,32.00
2022-11-13T07:00:01.441Z,35.25
2022-11-13T07:03:18.844Z,38.25
2022-11-13T07:06:40.076Z,45.75
2022-11-13T07:09:56.567Z,31.25
2022-11-13T07:13:12.467Z,31.00
2022-11-13T07:16:44.008Z,32.75
2022-11-13T07:20:04.899Z,33.00
2022-11-13T07:23:20.327Z,35.25
2022-11-13T07:26:36.192Z,33.25
2022-11-13T07:29:51.563Z,35.00
2022-11-13T07:33:07.544Z,29.50
2022-11-13T07:36:23.238Z,34.00
2022-11-13T07:39:39.271Z,24.75
2022-11-13T07:43:02.167Z,33.50
2022-11-13T07:46:18.167Z,35.00
2022-11-13T07:49:33.199Z,28.50
2022-11-13T07:52:49.888Z,39.00
2022-11-13T07:56:07.048Z,35.75
2022-11-13T07:59:23.311Z,36.25
2022-11-13T08:02:39.250Z,31.25
2022-11-13T08:06:00.570Z,33.50
2022-11-13T08:09:16.468Z,35.75
2022-11-13T08:12:32.491Z,34.00
2022-11-13T08:15:48.527Z,29.60
2022-11-13T08:19:04.800Z,37.25
2022-11-13T08:22:20.486Z,39.00
2022-11-13T08:25:36.328Z,32.25
2022-11-13T08:28:51.418Z,37.25
2022-11-13T08:32:07.429Z,30.00
2022-11-13T08:35:28.996Z,36.80
2022-11-13T08:38:44.312Z,73.50
2022-11-13T08:41:59.183Z,46.25
2022-11-13T08:45:15.648Z,66.00
2022-11-13T08:48:31.655Z,62.25
2022-11-13T08:51:47.582Z,62.25
2022-11-13T08:55:03.449Z,53.25
2022-11-13T08:58:19.321Z,41.20
2022-11-13T09:01:35.146Z,52.00
2022-11-13T09:04:50.468Z,37.20
2022-11-13T09:08:06.597Z,44.60
2022-11-13T09:11:22.700Z,51.60
2022-11-13T09:14:39.149Z,45.00
2022-11-13T09:17:59.445Z,45.00
2022-11-13T09:21:14.636Z,64.75
2022-11-13T09:24:30.681Z,69.50
2022-11-13T09:27:55.686Z,46.80
2022-11-13T09:31:11.527Z,47.00
2022-11-13T09:34:27.934Z,38.40
2022-11-13T09:37:43.293Z,49.40
2022-11-13T09:41:05.757Z,48.80
2022-11-13T09:44:29.089Z,46.20
2022-11-13T09:47:44.749Z,60.00
2022-11-13T09:51:02.652Z,68.75
2022-11-13T09:54:18.387Z,62.50
2022-11-13T09:57:51.878Z,36.80
2022-11-13T10:01:12.680Z,49.20
2022-11-13T10:04:45.391Z,97.75
2022-11-13T10:08:18.961Z,45.00
2022-11-13T10:11:53.174Z,37.80
2022-11-13T10:15:08.851Z,36.20
2022-11-13T10:18:27.729Z,46.00
2022-11-13T10:22:19.582Z,42.60
2022-11-13T10:25:36.341Z,37.60
2022-11-13T10:29:06.582Z,40.20
2022-11-13T10:32:24.356Z,30.80
2022-11-13T10:36:17.765Z,41.60
2022-11-13T10:39:41.953Z,33.80
2022-11-13T10:43:06.802Z,37.00
2022-11-13T10:46:26.824Z,38.00
2022-11-13T10:49:42.613Z,38.60
2022-11-13T10:52:58.870Z,30.80
2022-11-13T10:56:31.369Z,34.60
2022-11-13T10:59:47.582Z,36.40
2022-11-13T11:03:03.550Z,36.40
2022-11-13T11:06:19.699Z,33.40
2022-11-13T11:09:38.167Z,37.80
2022-11-13T11:12:56.027Z,39.20
2022-11-13T11:16:15.501Z,37.00
2022-11-13T11:19:32.084Z,38.80
2022-11-13T11:22:49.739Z,27.60
2022-11-13T11:26:12.889Z,24.60
2022-11-13T11:29:32.481Z,35.00
2022-11-13T11:33:09.956Z,38.00
2022-11-13T11:36:29.488Z,36.80
2022-11-13T11:39:55.840Z,28.60
2022-11-13T11:43:25.440Z,35.20
2022-11-13T11:46:45.499Z,45.00
2022-11-13T11:50:03.112Z,37.60
2022-11-13T11:53:21.377Z,35.20
2022-11-13T11:56:42.979Z,33.20
2022-11-13T12:00:12.393Z,32.00
2022-11-13T12:03:52.821Z,30.00
2022-11-13T12:07:39.440Z,29.60
2022-11-13T12:11:16.742Z,25.00
2022-11-13T12:14:49.794Z,28.80
2022-11-13T12:18:17.832Z,26.80
2022-11-13T12:21:55.419Z,25.40
2022-11-13T12:25:28.029Z,28.40
2022-11-13T12:29:09.563Z,32.60
2022-11-13T12:32:24.656Z,34.00
2022-11-13T12:35:40.663Z,31.60
2022-11-13T12:39:06.414Z,32.80
2022-11-13T12:42:30.901Z,43.80
2022-11-13T12:45:52.231Z,42.40
2022-11-13T12:49:28.359Z,43.80
2022-11-13T12:52:44.754Z,34.40
2022-11-13T12:56:02.319Z,35.20
2022-11-13T12:59:34.109Z,37.20
2022-11-13T13:03:03.185Z,30.60
2022-11-13T13:06:43.672Z,46.60
2022-11-13T13:09:59.371Z,29.80
2022-11-13T13:13:23.974Z,30.40
2022-11-13T13:16:40.739Z,34.40
2022-11-13T13:20:26.897Z,35.80
2022-11-13T13:23:50.267Z,32.00
2022-11-13T13:27:25.073Z,35.40
2022-11-13T13:31:16.498Z,31.80
2022-11-13T13:34:36.710Z,46.80
2022-11-13T13:38:04.693Z,30.40
2022-11-13T13:41:35.663Z,42.80
2022-11-13T13:44:50.678Z,31.80
2022-11-13T13:48:10.645Z,41.60
2022-11-13T13:51:43.812Z,31.00
2022-11-13T13:55:00.823Z,28.00
2022-11-13T13:58:18.016Z,32.20
2022-11-13T14:01:34.270Z,29.20
2022-11-13T14:04:52.409Z,30.40
2022-11-13T14:08:17.915Z,41.80
2022-11-13T14:11:33.852Z,24.60
2022-11-13T14:14:49.602Z,25.20
2022-11-13T14:18:13.901Z,30.20
2022-11-13T14:21:29.941Z,30.40
2022-11-13T14:25:04.838Z,35.60
2022-11-13T14:28:31.573Z,34.60
2022-11-13T14:31:47.807Z,37.00
2022-11-13T14:35:03.718Z,41.80
2022-11-13T14:38:25.023Z,34.60
2022-11-13T14:41:46.158Z,41.20
2022-11-13T14:45:14.004Z,39.60
2022-11-13T14:48:33.719Z,42.00
2022-11-13T14:51:54.822Z,37.00
2022-11-13T14:55:25.477Z,40.40
2022-11-13T14:58:44.892Z,44.40
2022-11-13T15:02:00.917Z,41.20
2022-11-13T15:05:17.137Z,34.80
2022-11-13T15:08:34.800Z,35.00
2022-11-13T15:11:51.055Z,51.20
2022-11-13T15:15:09.257Z,38.00
2022-11-13T15:18:24.727Z,39.40
2022-11-13T15:21:40.671Z,38.80
2022-11-13T15:24:55.643Z,43.20
2022-11-13T15:28:11.855Z,43.20
2022-11-13T15:31:31.590Z,31.20
2022-11-13T15:34:47.755Z,36.60
2022-11-13T15:38:03.551Z,47.00
2022-11-13T15:41:23.559Z,45.40
2022-11-13T15:44:40.789Z,40.80
2022-11-13T15:47:56.603Z,53.20
2022-11-13T15:51:37.881Z,98.00
2022-11-13T15:54:53.920Z,52.80
2022-11-13T15:58:19.024Z,28.60
2022-11-13T16:01:34.933Z,38.40
2022-11-13T16:04:56.965Z,36.80
2022-11-13T16:08:13.894Z,40.60
2022-11-13T16:11:34.915Z,51.60
2022-11-13T16:14:50.956Z,49.80
2022-11-13T16:18:07.128Z,39.20
2022-11-13T16:21:23.023Z,52.80
2022-11-13T16:24:38.604Z,52.20
2022-11-13T16:27:54.946Z,52.60
2022-11-13T16:31:10.988Z,46.60
2022-11-13T16:34:26.842Z,56.60
2022-11-13T16:37:42.954Z,45.60
2022-11-13T16:40:58.903Z,59.60
2022-11-13T16:44:15.058Z,55.40
2022-11-13T16:47:30.834Z,59.20
2022-11-13T16:50:46.951Z,64.60
2022-11-13T16:54:02.817Z,59.80
2022-11-13T16:57:19.875Z,60.20
2022-11-13T17:00:36.097Z,53.80
2022-11-13T17:03:51.923Z,70.75
2022-11-13T17:07:13.176Z,67.75
2022-11-13T17:10:31.973Z,60.75
2022-11-13T17:13:50.362Z,61.25
2022-11-13T17:17:07.339Z,66.25
2022-11-13T17:20:23.133Z,63.50
2022-11-13T17:23:38.786Z,62.75
2022-11-13T17:26:54.597Z,70.75
2022-11-13T17:30:12.384Z,57.50
2022-11-13T17:33:28.195Z,67.25
2022-11-13T17:36:43.933Z,69.75
2022-11-13T17:39:59.919Z,68.50
2022-11-13T17:43:15.961Z,62.00
2022-11-13T17:46:31.951Z,69.25
2022-11-13T17:49:47.786Z,56.25
2022-11-13T17:53:02.916Z,66.00
2022-11-13T17:56:20.221Z,55.50
2022-11-13T17:59:35.906Z,59.25
2022-11-13T18:02:52.207Z,52.00
2022-11-13T18:06:18.340Z,53.50
2022-11-13T18:09:35.327Z,65.75
2022-11-13T18:12:50.748Z,74.25
2022-11-13T18:16:08.432Z,55.50
2022-11-13T18:19:23.810Z,55.25
2022-11-13T18:22:39.678Z,56.00
2022-11-13T18:25:54.683Z,61.75
2022-11-13T18:29:09.982Z,62.00
2022-11-13T18:32:25.745Z,70.50
2022-11-13T18:35:41.019Z,56.25
2022-11-13T18:38:57.038Z,63.25
2022-11-13T18:42:12.916Z,61.50
2022-11-13T18:45:28.814Z,57.25
2022-11-13T18:48:45.351Z,59.50
2022-11-13T18:52:00.795Z,61.00
2022-11-13T18:55:17.174Z,68.25
2022-11-13T18:58:35.203Z,69.25
2022-11-13T19:01:50.745Z,69.50
2022-11-13T19:05:07.066Z,77.25
2022-11-13T19:08:22.698Z,55.00
2022-11-13T19:11:37.885Z,65.25
2022-11-13T19:14:53.830Z,60.25
2022-11-13T19:18:10.042Z,52.75
2022-11-13T19:21:27.713Z,52.75
2022-11-13T19:24:44.078Z,66.50
2022-11-13T19:28:00.326Z,56.00
2022-11-13T19:31:18.255Z,64.25
2022-11-13T19:34:34.506Z,57.00
2022-11-13T19:37:56.593Z,64.75
2022-11-13T19:41:12.245Z,57.75
2022-11-13T19:44:28.081Z,56.75
2022-11-13T19:47:44.008Z,62.00
2022-11-13T19:51:09.621Z,67.00
2022-11-13T19:54:24.824Z,61.25
2022-11-13T19:57:45.108Z,57.75
2022-11-13T20:01:08.442Z,57.50
2022-11-13T20:04:23.973Z,64.25
2022-11-13T20:07:40.036Z,47.50
2022-11-13T20:11:07.055Z,49.00
2022-11-13T20:14:22.943Z,59.00
2022-11-13T20:17:38.884Z,65.00
2022-11-13T20:20:55.262Z,57.75
2022-11-13T20:24:10.643Z,65.00
2022-11-13T20:27:27.125Z,65.50
2022-11-13T20:30:42.923Z,58.50
2022-11-13T20:33:59.134Z,60.75
2022-11-13T20:37:15.307Z,68.00
2022-11-13T20:40:30.890Z,62.25
2022-11-13T20:43:47.439Z,65.50
2022-11-13T20:47:03.054Z,73.25
2022-11-13T20:50:19.026Z,65.25
2022-11-13T20:53:35.073Z,75.00
2022-11-13T20:56:51.020Z,72.25
2022-11-13T21:00:07.512Z,71.00
2022-11-13T21:03:23.202Z,66.75
2022-11-13T21:06:39.493Z,70.75
2022-11-13T21:09:55.006Z,75.00
2022-11-13T21:13:11.161Z,78.50
2022-11-13T21:16:28.235Z,73.50
2022-11-13T21:19:44.019Z,70.75
2022-11-13T21:22:59.834Z,69.00
2022-11-13T21:26:16.218Z,84.25
2022-11-13T21:29:31.996Z,84.50
2022-11-13T21:32:47.910Z,77.25
2022-11-13T21:36:05.820Z,78.50
2022-11-13T21:39:22.846Z,67.00
2022-11-13T21:42:37.894Z,78.75
2022-11-13T21:45:53.959Z,92.50
2022-11-13T21:49:10.199Z,83.25
2022-11-13T21:52:25.958Z,75.50
2022-11-13T21:55:49.255Z,78.50
2022-11-13T21:59:05.224Z,75.00
2022-11-13T22:02:20.773Z,78.50
2022-11-13T22:05:37.215Z,75.50
2022-11-13T22:08:56.814Z,74.50
2022-11-13T22:12:13.243Z,62.00
2022-11-13T22:15:29.157Z,81.75
2022-11-13T22:18:45.493Z,69.75
2022-11-13T22:22:01.270Z,70.25
2022-11-13T22:25:17.285Z,64.00
2022-11-13T22:28:33.667Z,71.00
2022-11-13T22:31:50.083Z,71.25
2022-11-13T22:35:06.544Z,75.75
2022-11-13T22:38:21.945Z,67.25
2022-11-13T22:41:37.058Z,76.75
2022-11-13T22:44:56.489Z,80.50
2022-11-13T22:48:13.372Z,78.50
2022-11-13T22:51:38.177Z,69.25
2022-11-13T22:54:54.154Z,72.00
2022-11-13T22:58:10.076Z,73.50
2022-11-13T23:01:30.121Z,71.75
2022-11-13T23:04:46.031Z,71.50
2022-11-13T23:08:02.204Z,70.50
2022-11-13T23:11:30.194Z,63.25
2022-11-13T23:14:46.774Z,69.25
2022-11-13T23:18:05.838Z,75.25
2022-11-13T23:21:25.443Z,71.50
2022-11-13T23:24:41.127Z,74.50
2022-11-13T23:27:56.880Z,76.00
2022-11-13T23:31:12.480Z,73.50
2022-11-13T23:34:53.266Z,73.75
2022-11-13T23:38:04.195Z,77.25
2022-11-13T23:41:20.234Z,68.75
2022-11-13T23:44:36.263Z,67.25
2022-11-13T23:47:52.334Z,58.25
2022-11-13T23:51:08.208Z,66.00
2022-11-13T23:54:24.266Z,71.50
2022-11-13T23:57:39.949Z,73.75
